Time;durP1;ratioP1;P1;durP2;ratioP2;P2;SDS_P1;SDS_P2;PMS_P1;PMS_P2;Temp;Humidity;BMP_temperature;BMP_pressure;BME280_temperature;BME280_humidity;BME280_pressure;Samples;Min_cycle;Max_cycle;Signal;HPM_P1;HPM_P2
2023/02/25 00:01:12;;;;;;;21.83;3.33;;;6.30;99.90;;;;;;5069716;28;20051;-69
2023/02/25 00:03:39;;;;;;;24.25;4.30;;;6.40;99.90;;;;;;5071420;28;20036;-69
2023/02/25 00:06:06;;;;;;;28.65;3.30;;;6.20;99.90;;;;;;5071475;28;20037;-70
2023/02/25 00:08:33;;;;;;;35.80;3.97;;;6.30;99.90;;;;;;5071651;28;20028;-69
2023/02/25 00:11:04;;;;;;;25.70;3.10;;;6.20;99.90;;;;;;5070057;28;20054;-69
2023/02/25 00:13:30;;;;;;;23.40;3.22;;;6.30;99.90;;;;;;5070816;28;20020;-71
2023/02/25 00:15:57;;;;;;;25.08;4.07;;;6.30;99.90;;;;;;5069364;28;20119;-70
2023/02/25 00:18:24;;;;;;;21.02;3.35;;;6.40;99.90;;;;;;5070167;28;20068;-70
2023/02/25 00:20:50;;;;;;;31.90;3.28;;;6.30;99.90;;;;;;5070523;28;20046;-70
2023/02/25 00:23:16;;;;;;;36.92;4.25;;;6.40;99.90;;;;;;5070754;28;20119;-70
2023/02/25 00:25:42;;;;;;;29.80;3.40;;;6.30;99.90;;;;;;5070805;28;20059;-69
2023/02/25 00:28:08;;;;;;;26.33;3.65;;;6.40;99.90;;;;;;5071325;28;20048;-71
2023/02/25 00:30:34;;;;;;;18.40;3.38;;;6.30;99.90;;;;;;5069854;28;20037;-70
2023/02/25 00:33:01;;;;;;;27.17;2.80;;;6.40;99.90;;;;;;5070230;28;20050;-70
2023/02/25 00:35:26;;;;;;;29.65;3.50;;;6.30;99.90;;;;;;5069964;28;20150;-70
2023/02/25 00:37:53;;;;;;;20.17;3.33;;;6.30;99.90;;;;;;5070438;28;20036;-70
2023/02/25 00:40:19;;;;;;;21.02;3.42;;;6.40;99.90;;;;;;5070011;28;20024;-70
2023/02/25 00:42:44;;;;;;;17.25;3.30;;;6.40;99.90;;;;;;5052455;28;20039;-69
2023/02/25 00:45:11;;;;;;;17.88;2.92;;;6.30;99.90;;;;;;5071302;28;20024;-72
2023/02/25 00:47:37;;;;;;;19.58;2.65;;;6.20;99.90;;;;;;5069628;28;20412;-71
2023/02/25 00:50:06;;;;;;;19.60;2.95;;;6.20;99.90;;;;;;5070676;28;20070;-70
2023/02/25 00:52:32;;;;;;;20.17;3.33;;;6.20;99.90;;;;;;5070500;28;20025;-70
2023/02/25 00:54:58;;;;;;;23.63;2.90;;;6.10;99.90;;;;;;5070423;28;20029;-70
2023/02/25 00:57:24;;;;;;;12.82;2.97;;;6.10;99.90;;;;;;5070600;28;20043;-71
2023/02/25 00:59:50;;;;;;;18.98;4.10;;;6.30;99.90;;;;;;5070078;28;20166;-69
2023/02/25 01:02:16;;;;;;;29.95;3.38;;;6.00;99.90;;;;;;5070358;28;20032;-69
2023/02/25 01:04:41;;;;;;;23.73;3.25;;;6.00;99.90;;;;;;5069847;28;20056;-69
2023/02/25 01:07:07;;;;;;;15.52;3.05;;;5.80;99.90;;;;;;5069066;28;20033;-69
2023/02/25 01:09:33;;;;;;;16.33;2.22;;;5.90;99.90;;;;;;5051695;28;20028;-70
2023/02/25 01:11:59;;;;;;;12.85;2.35;;;5.90;99.90;;;;;;5070719;28;20098;-72
2023/02/25 01:14:25;;;;;;;14.80;2.30;;;6.10;99.90;;;;;;5070538;28;20035;-70
2023/02/25 01:16:52;;;;;;;10.52;2.03;;;6.00;99.90;;;;;;5069856;28;20122;-71
2023/02/25 01:19:20;;;;;;;11.48;1.80;;;6.10;99.90;;;;;;5070352;28;20047;-71
2023/02/25 01:21:48;;;;;;;11.93;2.25;;;6.10;99.90;;;;;;5070318;28;20489;-70
2023/02/25 01:24:25;;;;;;;;;;;6.40;99.90;;;;;;5069583;28;20040;-70
2023/02/25 01:26:52;;;;;;;17.63;2.28;;;6.20;99.90;;;;;;5070109;28;19916;-70
2023/02/25 01:29:21;;;;;;;12.98;1.52;;;6.30;99.90;;;;;;5068758;28;20048;-71
2023/02/25 01:31:54;;;;;;;10.60;1.70;;;6.30;99.90;;;;;;5070688;28;20025;-70
2023/02/25 01:34:20;;;;;;;16.73;2.35;;;6.40;99.90;;;;;;5070324;28;20480;-70
2023/02/25 01:36:46;;;;;;;15.85;2.97;;;6.20;99.90;;;;;;5069277;28;20025;-70
2023/02/25 01:39:14;;;;;;;21.55;3.65;;;6.20;99.90;;;;;;5070506;28;20029;-70
2023/02/25 01:41:40;;;;;;;25.77;3.40;;;6.30;99.90;;;;;;5070256;28;20025;-69
2023/02/25 01:44:15;;;;;;;19.60;2.53;;;6.20;99.90;;;;;;5070341;28;20414;-69
2023/02/25 01:46:46;;;;;;;15.50;3.20;;;6.20;99.90;;;;;;5069740;28;20044;-70
2023/02/25 01:49:22;;;;;;;18.80;2.55;;;6.20;99.90;;;;;;5069223;28;20028;-70
2023/02/25 01:51:53;;;;;;;19.23;2.90;;;6.10;99.90;;;;;;5069919;28;20036;-70
2023/02/25 01:54:19;;;;;;;12.95;2.75;;;6.20;99.90;;;;;;5068614;28;20371;-70
2023/02/25 01:56:49;;;;;;;25.30;2.97;;;6.20;99.90;;;;;;5070004;28;20060;-70
2023/02/25 01:59:16;;;;;;;22.38;3.22;;;6.20;99.90;;;;;;5070005;28;20021;-70
2023/02/25 02:01:43;;;;;;;21.20;3.07;;;6.20;99.90;;;;;;5071050;28;20082;-70
2023/02/25 02:04:12;;;;;;;14.43;2.88;;;6.20;99.90;;;;;;5068872;28;20292;-70
2023/02/25 02:06:41;;;;;;;20.90;2.55;;;6.20;99.90;;;;;;5068888;28;20038;-69
2023/02/25 02:09:13;;;;;;;21.05;3.05;;;6.30;99.90;;;;;;5070124;28;20482;-70
2023/02/25 02:11:38;;;;;;;15.73;2.67;;;6.20;99.90;;;;;;5069509;28;20025;-69
2023/02/25 02:14:06;;;;;;;22.27;3.08;;;6.00;99.90;;;;;;5070576;28;20098;-70
2023/02/25 02:16:59;;;;;;;18.98;4.10;;;6.00;99.90;;;;;;5073947;28;20082;-70
2023/02/25 02:19:31;;;;;;;12.45;2.28;;;5.90;99.90;;;;;;5073529;28;20544;-70
2023/02/25 02:22:17;;;;;;;20.45;2.25;;;5.90;99.90;;;;;;5073064;28;20060;-71
2023/02/25 02:25:01;;;;;;;16.75;3.08;;;6.00;99.90;;;;;;5071620;28;20040;-70
2023/02/25 02:28:09;;;;;;;24.15;3.13;;;5.90;99.90;;;;;;5072970;28;20044;-69
2023/02/25 02:31:12;;;;;;;13.68;2.35;;;6.00;99.90;;;;;;5072895;28;20128;-69
2023/02/25 02:33:50;;;;;;;16.88;2.47;;;6.00;99.90;;;;;;5072794;28;20024;-70
2023/02/25 02:36:34;;;;;;;14.63;2.65;;;5.80;99.90;;;;;;5084830;28;20063;-69
2023/02/25 02:39:24;;;;;;;18.30;2.80;;;5.90;99.90;;;;;;5092903;28;20025;-68
2023/02/25 02:42:10;;;;;;;12.40;2.42;;;5.90;99.90;;;;;;5093032;28;20458;-69
2023/02/25 02:44:44;;;;;;;21.77;3.30;;;5.80;99.90;;;;;;5092802;28;20036;-69
2023/02/25 02:47:15;;;;;;;13.55;2.50;;;5.80;99.90;;;;;;5092608;28;20028;-68
2023/02/25 02:50:01;;;;;;;18.33;2.88;;;5.80;99.90;;;;;;5093090;28;20012;-69
2023/02/25 02:52:30;;;;;;;8.75;2.25;;;5.80;99.90;;;;;;5092004;28;20032;-70
2023/02/25 02:55:21;;;;;;;21.98;2.97;;;5.80;99.90;;;;;;5092868;28;20070;-70
2023/02/25 02:58:00;;;;;;;8.45;1.50;;;5.80;99.90;;;;;;5092800;28;20028;-69
2023/02/25 03:00:32;;;;;;;17.52;2.30;;;5.80;99.90;;;;;;5092810;28;20085;-69
2023/02/25 03:03:04;;;;;;;15.70;2.47;;;5.90;99.90;;;;;;5092461;28;20024;-69
2023/02/25 03:05:33;;;;;;;13.00;2.22;;;5.80;99.90;;;;;;5092310;28;20114;-69
2023/02/25 03:08:09;;;;;;;15.10;2.30;;;5.90;99.90;;;;;;5092954;28;20036;-69
2023/02/25 03:10:36;;;;;;;16.15;2.35;;;5.80;99.90;;;;;;5092306;28;20425;-69
2023/02/25 03:13:02;;;;;;;15.07;2.38;;;5.80;99.90;;;;;;5092190;28;20032;-70
2023/02/25 03:15:30;;;;;;;20.98;3.00;;;6.00;99.90;;;;;;5092155;28;20040;-70
2023/02/25 03:18:04;;;;;;;19.48;2.67;;;6.10;99.90;;;;;;5092201;28;20322;-70
2023/02/25 03:20:38;;;;;;;15.57;2.03;;;6.00;99.90;;;;;;5092084;28;20043;-69
2023/02/25 03:23:09;;;;;;;16.85;2.03;;;6.20;99.90;;;;;;5092176;28;20378;-69
2023/02/25 03:25:46;;;;;;;15.27;1.75;;;6.20;99.90;;;;;;5092209;28;20016;-70
2023/02/25 03:28:32;;;;;;;8.23;1.65;;;6.00;99.90;;;;;;5090641;28;20028;-69
2023/02/25 03:31:23;;;;;;;17.88;2.25;;;6.20;99.90;;;;;;5092017;28;20126;-69
2023/02/25 03:33:55;;;;;;;8.00;1.30;;;6.10;99.90;;;;;;5091672;28;20036;-68
2023/02/25 03:36:27;;;;;;;14.15;2.50;;;6.00;99.90;;;;;;5091686;28;20036;-69
2023/02/25 03:38:58;;;;;;;10.27;1.85;;;6.00;99.90;;;;;;5092032;28;20081;-70
2023/02/25 03:41:29;;;;;;;10.90;1.20;;;6.10;99.90;;;;;;5092052;28;20358;-69
2023/02/25 03:43:56;;;;;;;14.02;1.92;;;5.90;99.90;;;;;;5092177;28;20031;-69
2023/02/25 03:46:24;;;;;;;12.77;1.65;;;5.90;99.90;;;;;;5090479;28;20331;-69
2023/02/25 03:48:51;;;;;;;10.70;1.80;;;5.90;99.90;;;;;;5091516;28;20028;-69
2023/02/25 03:51:23;;;;;;;7.60;1.20;;;5.80;99.90;;;;;;5091491;28;20020;-70
2023/02/25 03:53:49;;;;;;;12.23;2.60;;;5.90;99.90;;;;;;5091433;28;20024;-69
2023/02/25 03:56:15;;;;;;;17.65;1.60;;;6.00;99.90;;;;;;5091462;28;20024;-69
2023/02/25 03:58:41;;;;;;;9.00;1.30;;;6.00;99.90;;;;;;5090625;28;20105;-69
2023/02/25 04:01:13;;;;;;;5.13;1.30;;;6.10;99.90;;;;;;5090413;28;20139;-70
2023/02/25 04:03:39;;;;;;;15.93;2.15;;;6.40;99.90;;;;;;5091085;28;20051;-69
2023/02/25 04:06:05;;;;;;;5.78;1.15;;;6.40;99.90;;;;;;5091217;28;20454;-69
2023/02/25 04:08:30;;;;;;;11.90;2.25;;;6.50;99.90;;;;;;5090877;28;20070;-69
2023/02/25 04:10:56;;;;;;;11.68;1.48;;;6.70;99.90;;;;;;5091451;28;20047;-69
2023/02/25 04:13:22;;;;;;;8.35;1.30;;;6.60;99.90;;;;;;5090914;28;20032;-70
2023/02/25 04:15:48;;;;;;;14.10;1.80;;;6.70;99.90;;;;;;5090907;28;20040;-69
2023/02/25 04:18:14;;;;;;;9.98;1.67;;;6.80;99.90;;;;;;5091142;28;20109;-68
2023/02/25 04:20:40;;;;;;;7.30;1.40;;;6.80;99.90;;;;;;5090889;28;20039;-69
2023/02/25 04:23:07;;;;;;;12.60;1.60;;;6.80;99.90;;;;;;5089798;28;20173;-69
2023/02/25 04:25:33;;;;;;;11.35;1.38;;;6.50;99.90;;;;;;5091360;28;20120;-69
2023/02/25 04:27:59;;;;;;;17.70;1.60;;;6.50;99.90;;;;;;5090979;28;20051;-69
2023/02/25 04:30:24;;;;;;;12.30;1.65;;;6.50;99.90;;;;;;5090972;28;20065;-69
2023/02/25 04:32:50;;;;;;;5.15;1.42;;;6.50;99.90;;;;;;5090935;28;20042;-69
2023/02/25 04:35:16;;;;;;;9.95;1.55;;;6.20;99.90;;;;;;5090744;28;20032;-70
2023/02/25 04:37:42;;;;;;;6.97;1.55;;;5.90;99.90;;;;;;5090421;28;20027;-69
2023/02/25 04:40:19;;;;;;;6.20;1.10;;;6.10;99.90;;;;;;5089408;28;20409;-69
2023/02/25 04:42:45;;;;;;;16.93;1.43;;;6.30;99.90;;;;;;5089558;28;20406;-70
2023/02/25 04:45:11;;;;;;;3.30;1.20;;;6.30;99.90;;;;;;5090786;28;20043;-69
2023/02/25 04:47:38;;;;;;;8.75;1.58;;;6.20;99.90;;;;;;5089475;28;20074;-69
2023/02/25 04:50:05;;;;;;;5.05;1.13;;;6.30;99.90;;;;;;5089262;28;20243;-70
2023/02/25 04:52:31;;;;;;;4.10;1.20;;;6.20;99.90;;;;;;5091007;28;20077;-69
2023/02/25 04:54:56;;;;;;;16.67;2.25;;;6.20;99.90;;;;;;5090513;28;20032;-69
2023/02/25 04:57:22;;;;;;;9.77;1.60;;;6.10;99.90;;;;;;5090482;28;20036;-68
2023/02/25 04:59:48;;;;;;;8.07;1.60;;;6.10;99.90;;;;;;5090469;28;20093;-69
2023/02/25 05:02:13;;;;;;;12.45;1.70;;;6.00;99.90;;;;;;5090358;28;20028;-69
2023/02/25 05:04:40;;;;;;;11.52;1.77;;;5.90;99.90;;;;;;5090632;28;20020;-69
2023/02/25 05:07:07;;;;;;;9.15;1.33;;;6.00;99.90;;;;;;5090186;28;20040;-69
2023/02/25 05:09:32;;;;;;;14.75;1.27;;;6.00;99.90;;;;;;5090252;28;20032;-69
2023/02/25 05:12:01;;;;;;;11.43;1.77;;;6.00;99.90;;;;;;5090122;28;20040;-70
2023/02/25 05:14:27;;;;;;;10.25;1.48;;;6.10;99.90;;;;;;5089056;28;20038;-68
2023/02/25 05:16:52;;;;;;;10.43;1.25;;;6.10;99.90;;;;;;5090732;28;20103;-69
2023/02/25 05:19:21;;;;;;;9.93;1.15;;;6.00;99.90;;;;;;5090169;28;20032;-70
2023/02/25 05:21:47;;;;;;;6.28;1.30;;;5.90;99.90;;;;;;5090135;28;20064;-68
2023/02/25 05:24:13;;;;;;;14.38;1.75;;;5.90;99.90;;;;;;5089742;28;20370;-69
2023/02/25 05:26:39;;;;;;;15.93;2.42;;;5.90;99.90;;;;;;5089991;28;20036;-69
2023/02/25 05:29:04;;;;;;;9.05;1.55;;;5.90;99.90;;;;;;5089889;28;20048;-70
2023/02/25 05:31:30;;;;;;;7.53;1.10;;;6.00;99.90;;;;;;5090765;28;20020;-70
2023/02/25 05:33:56;;;;;;;10.25;1.27;;;6.00;99.90;;;;;;5090476;28;20036;-69
2023/02/25 05:36:22;;;;;;;8.63;1.23;;;6.00;99.90;;;;;;5090397;28;20476;-68
2023/02/25 05:38:48;;;;;;;13.18;1.30;;;6.00;99.90;;;;;;5090243;28;20021;-69
2023/02/25 05:41:14;;;;;;;8.88;1.17;;;5.90;99.90;;;;;;5090071;28;20336;-69
2023/02/25 05:43:40;;;;;;;12.25;1.35;;;6.00;99.90;;;;;;5090538;28;20094;-68
2023/02/25 05:46:10;;;;;;;6.57;1.30;;;5.90;99.90;;;;;;5090201;28;20119;-70
2023/02/25 05:48:37;;;;;;;3.97;1.08;;;6.20;99.90;;;;;;5089910;28;20024;-69
2023/02/25 05:51:06;;;;;;;4.20;0.60;;;6.10;99.90;;;;;;5093194;28;20020;-69
2023/02/25 05:53:32;;;;;;;8.13;1.17;;;6.20;99.90;;;;;;5093726;28;20021;-69
2023/02/25 05:55:58;;;;;;;6.82;1.23;;;6.20;99.70;;;;;;5094336;28;20050;-70
2023/02/25 05:58:23;;;;;;;5.72;0.80;;;6.10;99.20;;;;;;5093656;28;20052;-70
2023/02/25 06:00:49;;;;;;;3.67;1.02;;;6.10;99.30;;;;;;5093664;28;20343;-69
2023/02/25 06:03:15;;;;;;;3.60;0.70;;;6.00;98.90;;;;;;5092497;28;20197;-69
2023/02/25 06:05:41;;;;;;;5.28;0.68;;;5.90;99.30;;;;;;5093303;28;20477;-69
2023/02/25 06:08:09;;;;;;;1.65;0.43;;;5.90;99.20;;;;;;5093587;28;20024;-70
2023/02/25 06:10:37;;;;;;;8.25;0.82;;;6.00;99.10;;;;;;5093854;28;20016;-69
2023/02/25 06:13:10;;;;;;;;;;;6.00;98.90;;;;;;5093722;28;20489;-69
2023/02/25 06:15:37;;;;;;;3.35;1.00;;;5.90;98.70;;;;;;5092249;28;19916;-68
2023/02/25 06:18:03;;;;;;;4.17;0.90;;;5.90;98.90;;;;;;5093208;28;20363;-69
2023/02/25 06:20:29;;;;;;;2.38;0.50;;;6.00;99.00;;;;;;5092673;28;20024;-69
2023/02/25 06:22:55;;;;;;;2.95;0.60;;;6.00;98.90;;;;;;5093095;28;20035;-68
2023/02/25 06:25:21;;;;;;;3.45;0.57;;;6.10;99.00;;;;;;5093110;28;20320;-69
2023/02/25 06:27:47;;;;;;;5.47;0.50;;;6.00;98.80;;;;;;5092789;28;20032;-69
2023/02/25 06:30:13;;;;;;;3.10;0.77;;;6.00;98.70;;;;;;5092850;28;20040;-69
2023/02/25 06:32:39;;;;;;;4.70;0.60;;;6.00;99.00;;;;;;5092851;28;20126;-68
2023/02/25 06:35:05;;;;;;;6.55;0.60;;;6.00;98.90;;;;;;5093339;28;20020;-69
2023/02/25 06:37:31;;;;;;;1.63;0.38;;;6.00;99.00;;;;;;5093160;28;20080;-69
2023/02/25 06:39:57;;;;;;;1.40;0.40;;;6.00;99.00;;;;;;5092734;28;20028;-69
2023/02/25 06:42:23;;;;;;;6.22;0.80;;;6.00;98.90;;;;;;5092740;28;20282;-69
2023/02/25 06:44:49;;;;;;;4.95;0.80;;;6.00;98.40;;;;;;5092481;28;20117;-69
2023/02/25 06:47:14;;;;;;;4.35;0.77;;;5.90;98.60;;;;;;5092483;28;20024;-69
2023/02/25 06:49:41;;;;;;;3.45;0.75;;;5.80;98.80;;;;;;5092885;28;20434;-69
2023/02/25 06:52:06;;;;;;;5.75;0.75;;;5.80;98.50;;;;;;5092849;28;20131;-70
2023/02/25 06:54:32;;;;;;;1.90;0.52;;;5.80;98.40;;;;;;5092591;28;20158;-70
2023/02/25 06:56:59;;;;;;;5.70;0.50;;;5.60;98.50;;;;;;5092448;28;20076;-71
2023/02/25 06:59:25;;;;;;;5.73;0.87;;;5.60;98.70;;;;;;5092724;28;20027;-70
2023/02/25 07:01:51;;;;;;;5.75;0.80;;;5.80;98.70;;;;;;5091702;28;20261;-69
2023/02/25 07:04:17;;;;;;;2.83;0.85;;;5.80;98.40;;;;;;5092496;28;20122;-70
2023/02/25 07:06:43;;;;;;;1.35;0.70;;;5.90;98.30;;;;;;5092127;28;20486;-70
2023/02/25 07:09:09;;;;;;;2.22;0.52;;;5.90;98.20;;;;;;5092140;28;20170;-70
2023/02/25 07:11:35;;;;;;;9.60;0.88;;;5.90;97.80;;;;;;5091955;28;20031;-70
2023/02/25 07:14:05;;;;;;;1.65;0.45;;;5.90;97.60;;;;;;5092391;28;20028;-69
2023/02/25 07:16:33;;;;;;;1.48;0.43;;;6.10;97.60;;;;;;5092084;28;20063;-70
2023/02/25 07:19:01;;;;;;;;;;;6.10;97.60;;;;;;5092426;28;20476;-69
2023/02/25 07:21:28;;;;;;;;;;;6.20;97.70;;;;;;5092387;28;19911;-70
2023/02/25 07:23:54;;;;;;;4.07;0.75;;;6.10;97.30;;;;;;5092169;28;19995;-69
2023/02/25 07:26:19;;;;;;;3.20;0.50;;;6.10;97.50;;;;;;5091785;28;20161;-69
2023/02/25 07:28:47;;;;;;;1.02;0.40;;;6.20;97.60;;;;;;5086701;28;20052;-69
2023/02/25 07:31:18;;;;;;;3.70;0.70;;;6.20;97.90;;;;;;5071631;28;20049;-70
2023/02/25 07:33:44;;;;;;;3.80;0.65;;;6.20;98.00;;;;;;5070473;28;20032;-70
2023/02/25 07:36:10;;;;;;;1.48;0.50;;;6.20;97.30;;;;;;5071474;28;20571;-70
2023/02/25 07:38:37;;;;;;;5.63;0.95;;;6.20;97.20;;;;;;5071412;28;20036;-71
2023/02/25 07:41:17;;;;;;;4.03;0.68;;;6.10;97.40;;;;;;5070531;28;20028;-69
2023/02/25 07:43:43;;;;;;;1.65;0.65;;;6.20;97.40;;;;;;5070666;28;20165;-69
2023/02/25 07:46:09;;;;;;;7.57;2.50;;;6.20;97.50;;;;;;5071192;28;20179;-70
2023/02/25 07:48:35;;;;;;;3.35;1.08;;;6.10;97.20;;;;;;5071444;28;20028;-70
2023/02/25 07:51:10;;;;;;;4.72;0.65;;;6.30;97.30;;;;;;5071058;28;20450;-69
2023/02/25 07:53:36;;;;;;;8.15;0.70;;;6.40;97.00;;;;;;5071288;28;20548;-69
2023/02/25 07:56:01;;;;;;;2.20;0.80;;;6.50;97.10;;;;;;5071523;28;20028;-68
2023/02/25 07:58:27;;;;;;;1.17;0.38;;;6.80;97.40;;;;;;5071321;28;20071;-70
2023/02/25 08:00:53;;;;;;;1.40;0.47;;;6.80;97.20;;;;;;5070990;28;20090;-72
2023/02/25 08:03:19;;;;;;;1.60;0.57;;;6.80;96.70;;;;;;5070857;28;20036;-70
2023/02/25 08:05:49;;;;;;;3.05;0.85;;;6.90;96.60;;;;;;5070976;28;20084;-68
2023/02/25 08:08:15;;;;;;;1.75;0.45;;;6.90;96.30;;;;;;5069675;28;20028;-70
2023/02/25 08:10:42;;;;;;;3.17;0.75;;;6.90;95.90;;;;;;5071319;28;20399;-72
2023/02/25 08:13:08;;;;;;;6.28;0.60;;;6.90;96.40;;;;;;5070597;28;20287;-71
2023/02/25 08:15:33;;;;;;;4.50;0.52;;;6.90;96.40;;;;;;5070673;28;20028;-73
2023/02/25 08:17:59;;;;;;;2.97;0.65;;;6.90;96.10;;;;;;5069752;28;20025;-72
2023/02/25 08:20:25;;;;;;;1.10;0.38;;;6.70;95.80;;;;;;5070026;28;20044;-71
2023/02/25 08:22:50;;;;;;;2.92;0.68;;;6.60;95.80;;;;;;5071213;28;20134;-73
2023/02/25 08:25:16;;;;;;;6.22;0.50;;;6.60;95.90;;;;;;5070702;28;20029;-77
2023/02/25 08:27:43;;;;;;;3.90;0.60;;;6.80;95.80;;;;;;5070499;28;20044;-72
2023/02/25 08:30:10;;;;;;;4.15;0.77;;;6.80;95.70;;;;;;5070199;28;20039;-72
2023/02/25 08:32:35;;;;;;;2.60;0.60;;;6.80;95.60;;;;;;5069408;28;20415;-74
2023/02/25 08:35:01;;;;;;;5.75;0.55;;;6.80;95.50;;;;;;5070840;28;20103;-73
2023/02/25 08:37:27;;;;;;;5.05;1.75;;;6.90;95.50;;;;;;5070544;28;20077;-73
2023/02/25 08:39:56;;;;;;;5.18;0.47;;;6.90;95.50;;;;;;5069356;28;20359;-73
2023/02/25 08:42:22;;;;;;;6.28;2.00;;;6.90;95.20;;;;;;5070197;28;20032;-74
2023/02/25 08:44:48;;;;;;;5.20;0.70;;;7.00;95.20;;;;;;5069271;28;20032;-74
2023/02/25 08:47:15;;;;;;;5.57;0.80;;;7.10;95.00;;;;;;5069480;28;20469;-75
2023/02/25 08:49:41;;;;;;;5.47;0.73;;;7.10;94.30;;;;;;5070839;28;20016;-74
2023/02/25 08:52:12;;;;;;;6.53;1.52;;;6.90;94.50;;;;;;5070694;28;20166;-76
2023/02/25 08:54:39;;;;;;;3.08;0.52;;;7.20;95.00;;;;;;5070346;28;20036;-73
2023/02/25 08:57:04;;;;;;;1.85;0.30;;;7.50;95.00;;;;;;5070423;28;20439;-74
2023/02/25 08:59:34;;;;;;;1.08;0.65;;;7.80;94.60;;;;;;5069296;28;20028;-74
2023/02/25 09:02:05;;;;;;;4.78;0.47;;;8.00;94.40;;;;;;5069696;28;20205;-72
2023/02/25 09:04:32;;;;;;;1.65;0.57;;;8.00;93.10;;;;;;5070305;28;20037;-75
2023/02/25 09:07:01;;;;;;;2.38;0.50;;;8.00;93.20;;;;;;5070439;28;20179;-76
2023/02/25 09:09:28;;;;;;;1.95;0.57;;;8.00;93.40;;;;;;5069984;28;20395;-74
2023/02/25 09:11:54;;;;;;;3.20;0.82;;;8.00;92.90;;;;;;5070259;28;20028;-72
2023/02/25 09:14:20;;;;;;;1.13;0.40;;;8.00;92.80;;;;;;5070124;28;20071;-73
2023/02/25 09:16:47;;;;;;;1.20;0.38;;;8.10;93.00;;;;;;5070553;28;20032;-74
2023/02/25 09:19:16;;;;;;;4.53;0.60;;;8.00;93.00;;;;;;5070224;28;20119;-74
2023/02/25 09:21:41;;;;;;;0.90;0.43;;;7.90;93.00;;;;;;5068948;28;20068;-73
2023/02/25 09:24:08;;;;;;;3.13;0.60;;;7.90;92.70;;;;;;5070163;28;20040;-74
2023/02/25 09:26:34;;;;;;;3.90;0.60;;;7.80;92.60;;;;;;5074153;28;20047;-75
2023/02/25 09:29:08;;;;;;;2.50;0.43;;;7.90;92.70;;;;;;5074183;28;20045;-72
2023/02/25 09:31:36;;;;;;;2.67;0.60;;;7.70;92.90;;;;;;5073041;28;20036;-73
2023/02/25 09:34:05;;;;;;;3.17;0.40;;;7.60;92.80;;;;;;5073900;28;20024;-72
2023/02/25 09:36:31;;;;;;;1.88;0.60;;;7.60;92.80;;;;;;5073826;28;20032;-77
2023/02/25 09:38:57;;;;;;;1.75;0.70;;;7.50;92.90;;;;;;5073812;28;20033;-72
2023/02/25 09:42:10;;;;;;;1.92;0.68;;;7.50;93.20;;;;;;5073568;28;20407;-75
2023/02/25 09:44:39;;;;;;;1.65;0.60;;;7.40;93.30;;;;;;5011522;28;20317;-76
2023/02/25 09:47:18;;;;;;;3.17;0.80;;;7.40;93.50;;;;;;4994672;28;20022;-75
2023/02/25 09:50:05;;;;;;;0.73;0.55;;;7.30;93.90;;;;;;5047907;28;20059;-74
2023/02/25 09:53:06;;;;;;;1.25;0.52;;;7.40;93.70;;;;;;5073894;28;20055;-73
2023/02/25 09:55:33;;;;;;;1.65;0.52;;;7.20;94.00;;;;;;5048192;28;20028;-72
2023/02/25 09:58:14;;;;;;;8.73;1.00;;;7.30;94.50;;;;;;5073824;28;20032;-73
2023/02/25 10:00:48;;;;;;;0.60;0.40;;;7.50;94.80;;;;;;5073396;28;20489;-70
2023/02/25 10:03:21;;;;;;;5.00;0.75;;;7.50;94.70;;;;;;5073194;28;20090;-74
2023/02/25 10:05:59;;;;;;;4.00;0.65;;;7.50;94.70;;;;;;5073252;28;20028;-72
2023/02/25 10:08:31;;;;;;;;;;;7.60;94.70;;;;;;5073852;28;20032;-72
2023/02/25 10:11:12;;;;;;;0.88;0.40;;;7.60;94.50;;;;;;5073785;28;20322;-72
2023/02/25 10:13:56;;;;;;;6.60;0.63;;;7.50;94.40;;;;;;5071968;28;20138;-73
2023/02/25 10:16:47;;;;;;;2.67;0.50;;;7.60;94.90;;;;;;5073294;28;20417;-73
2023/02/25 10:19:47;;;;;;;1.60;0.47;;;7.90;94.70;;;;;;5053029;28;20033;-73
2023/02/25 10:22:34;;;;;;;2.60;0.55;;;7.90;94.30;;;;;;5053005;28;20025;-72
2023/02/25 10:25:14;;;;;;;1.85;0.60;;;8.20;94.20;;;;;;5052964;28;20033;-72
2023/02/25 10:27:59;;;;;;;7.93;0.40;;;8.40;94.10;;;;;;5052966;28;20103;-73
2023/02/25 10:30:33;;;;;;;1.27;0.50;;;8.20;93.60;;;;;;5053134;28;20045;-72
2023/02/25 10:33:04;;;;;;;2.90;0.65;;;8.20;93.50;;;;;;5051720;28;20036;-72
2023/02/25 10:35:36;;;;;;;5.85;0.73;;;8.30;93.40;;;;;;5053104;28;20037;-73
2023/02/25 10:38:02;;;;;;;2.97;0.60;;;8.30;93.40;;;;;;5053151;28;20371;-72
2023/02/25 10:40:28;;;;;;;0.63;0.20;;;8.40;93.20;;;;;;5053565;28;20245;-74
2023/02/25 10:42:58;;;;;;;2.08;0.50;;;8.20;92.50;;;;;;5053126;28;20340;-73
2023/02/25 10:45:29;;;;;;;4.40;0.70;;;8.00;92.20;;;;;;5051872;28;20037;-73
2023/02/25 10:48:34;;;;;;;2.55;0.30;;;7.80;92.70;;;;;;5052751;28;20068;-73
2023/02/25 10:51:11;;;;;;;1.23;0.55;;;7.80;93.00;;;;;;5010588;28;20030;-72
2023/02/25 10:53:38;;;;;;;3.30;0.60;;;7.80;93.30;;;;;;5010900;28;20081;-78
2023/02/25 10:56:05;;;;;;;3.40;0.47;;;7.60;92.80;;;;;;5034102;28;20425;-72
2023/02/25 10:58:43;;;;;;;2.33;0.43;;;7.60;92.70;;;;;;5053037;28;20024;-72
2023/02/25 11:01:18;;;;;;;;;;;7.70;93.10;;;;;;5052993;28;20373;-70
2023/02/25 11:03:57;;;;;;;1.77;0.40;;;7.90;92.90;;;;;;5052741;28;19909;-71
2023/02/25 11:06:27;;;;;;;2.58;0.40;;;8.30;92.00;;;;;;5052567;28;20404;-72
2023/02/25 11:08:55;;;;;;;1.75;0.70;;;8.50;92.30;;;;;;5052433;28;20078;-71
2023/02/25 11:11:29;;;;;;;1.58;0.50;;;8.80;92.30;;;;;;5052171;28;20052;-71
2023/02/25 11:14:14;;;;;;;2.85;0.52;;;9.30;91.90;;;;;;5051458;28;20109;-71
2023/02/25 11:16:42;;;;;;;2.67;0.40;;;10.70;91.70;;;;;;5052073;28;20033;-71
2023/02/25 11:19:14;;;;;;;;;;;11.70;86.20;;;;;;5052576;28;20033;-72
2023/02/25 11:21:40;;;;;;;3.22;0.68;;;12.00;85.10;;;;;;5052249;28;20297;-71
2023/02/25 11:24:14;;;;;;;6.03;1.15;;;12.70;84.00;;;;;;5051873;28;20059;-70
2023/02/25 11:26:44;;;;;;;2.88;0.70;;;12.60;80.40;;;;;;5050229;28;20032;-71
2023/02/25 11:29:20;;;;;;;4.72;0.70;;;12.40;80.00;;;;;;5050121;28;20096;-72
2023/02/25 11:32:19;;;;;;;0.60;0.47;;;11.80;79.10;;;;;;5052387;28;20021;-71
2023/02/25 11:34:50;;;;;;;3.17;0.80;;;11.50;80.10;;;;;;5049959;28;20196;-72
2023/02/25 11:37:40;;;;;;;1.85;0.65;;;10.90;81.10;;;;;;5050824;28;20029;-70
2023/02/25 11:40:39;;;;;;;4.03;0.80;;;10.40;82.00;;;;;;5051631;28;20055;-72
2023/02/25 11:43:05;;;;;;;3.22;0.75;;;10.00;83.60;;;;;;5051977;28;20039;-71
2023/02/25 11:45:39;;;;;;;3.50;0.80;;;9.90;84.90;;;;;;5051738;28;20112;-71
2023/02/25 11:48:26;;;;;;;3.08;0.80;;;9.80;85.20;;;;;;5050068;28;20033;-72
2023/02/25 11:51:12;;;;;;;2.63;0.73;;;9.60;85.20;;;;;;5051384;28;20037;-72
2023/02/25 11:53:40;;;;;;;6.10;3.00;;;9.50;84.90;;;;;;5051708;28;20258;-72
2023/02/25 11:56:21;;;;;;;4.90;1.25;;;9.20;83.90;;;;;;5050300;28;20040;-72
2023/02/25 11:59:17;;;;;;;1.52;0.60;;;9.10;83.80;;;;;;5050858;28;20028;-71
2023/02/25 12:01:48;;;;;;;1.80;0.75;;;8.70;83.90;;;;;;5051442;28;20029;-72
2023/02/25 12:04:39;;;;;;;2.25;0.80;;;8.70;84.10;;;;;;5050882;28;20029;-71
2023/02/25 12:07:44;;;;;;;2.10;0.68;;;8.50;84.70;;;;;;5051121;28;20025;-72
2023/02/25 12:10:47;;;;;;;7.65;1.60;;;8.30;85.00;;;;;;5049814;28;20052;-72
2023/02/25 12:13:31;;;;;;;2.25;0.65;;;8.20;86.10;;;;;;5051258;28;20032;-73
2023/02/25 12:16:19;;;;;;;3.70;0.60;;;8.20;86.60;;;;;;5051019;28;20053;-72
2023/02/25 12:18:58;;;;;;;3.78;0.55;;;8.00;86.70;;;;;;5050782;28;20386;-73
2023/02/25 12:21:58;;;;;;;3.03;0.68;;;8.00;87.30;;;;;;5049682;28;20039;-72
2023/02/25 12:24:57;;;;;;;4.57;0.68;;;8.10;87.90;;;;;;5049692;28;20452;-72
2023/02/25 12:27:46;;;;;;;1.33;0.50;;;8.10;88.20;;;;;;5050678;28;20127;-72
2023/02/25 12:30:30;;;;;;;2.67;0.68;;;8.10;88.70;;;;;;5049668;28;20044;-71
2023/02/25 12:32:55;;;;;;;4.63;0.95;;;8.20;88.20;;;;;;5049783;28;20067;-71
2023/02/25 12:35:39;;;;;;;2.15;0.73;;;8.30;88.70;;;;;;5050015;28;20095;-72
2023/02/25 12:38:44;;;;;;;1.33;0.80;;;8.40;88.60;;;;;;5050772;28;20125;-71
2023/02/25 12:41:29;;;;;;;2.10;0.73;;;8.30;88.00;;;;;;5050513;28;20021;-71
2023/02/25 12:44:25;;;;;;;5.53;0.50;;;8.30;87.60;;;;;;5050767;28;20024;-72
2023/02/25 12:47:09;;;;;;;4.07;0.80;;;8.30;88.10;;;;;;5051157;28;20044;-71
2023/02/25 12:49:50;;;;;;;4.00;1.33;;;8.20;87.50;;;;;;5050507;28;20033;-72
2023/02/25 12:52:44;;;;;;;3.30;0.80;;;8.30;87.30;;;;;;5050231;28;20037;-71
2023/02/25 12:55:36;;;;;;;4.90;0.60;;;8.10;86.10;;;;;;5050276;28;20059;-71
2023/02/25 12:58:15;;;;;;;6.32;1.00;;;8.40;87.60;;;;;;5048228;28;20072;-72
2023/02/25 13:01:04;;;;;;;1.23;0.60;;;8.50;86.80;;;;;;5049735;28;20525;-71
2023/02/25 13:03:45;;;;;;;3.70;0.55;;;8.50;86.00;;;;;;5050326;28;20056;-71
2023/02/25 13:06:30;;;;;;;4.45;1.10;;;8.40;84.80;;;;;;5050367;28;20103;-72
2023/02/25 13:08:55;;;;;;;4.78;1.10;;;8.30;84.50;;;;;;5050154;28;20025;-71
2023/02/25 13:11:49;;;;;;;2.85;0.55;;;8.20;84.90;;;;;;5050062;28;20040;-74
2023/02/25 13:14:34;;;;;;;1.30;0.60;;;8.00;84.70;;;;;;5046070;28;20032;-71
2023/02/25 13:17:12;;;;;;;5.05;0.50;;;7.80;85.30;;;;;;5050800;28;20086;-71
2023/02/25 13:20:15;;;;;;;9.60;0.80;;;7.80;85.90;;;;;;5050305;28;20090;-71